Tributaries of Vltava river

river Berounka - water gauge Beroun

Date and time (UTC) H (cm) Q (m³/s)
20. 7. 2024 04:50 99 10.5
20. 7. 2024 04:00 98 10
20. 7. 2024 03:00 102 12
20. 7. 2024 02:00 105 13
20. 7. 2024 01:00 105 13
20. 7. 2024 00:00 99 11
19. 7. 2024 23:00 99 11
19. 7. 2024 22:00 101 11
19. 7. 2024 21:00 104 12
19. 7. 2024 20:00 107 14
19. 7. 2024 19:00 106 13
19. 7. 2024 18:00 102 12
19. 7. 2024 17:00 98 10
19. 7. 2024 16:00 100 11

H - water level, Q - discharge

river Sázava - water gauge Nespeky

Date and time (UTC) H (cm) Q (m³/s)
20. 7. 2024 04:40 52 6.6
20. 7. 2024 04:00 52 7
20. 7. 2024 03:00 53 7
20. 7. 2024 02:00 53 7
20. 7. 2024 01:00 52 7
20. 7. 2024 00:00 53 7
19. 7. 2024 23:00 53 7
19. 7. 2024 22:00 53 7
19. 7. 2024 21:00 53 7
19. 7. 2024 20:00 55 7
19. 7. 2024 19:00 52 7
19. 7. 2024 18:00 48 6
19. 7. 2024 17:00 53 7
19. 7. 2024 16:00 52 7

H - water level, Q - discharge

river Otava - water gauge Písek

Date and time (UTC) H (cm) Q (m³/s)
20. 7. 2024 04:50 64 11.2
20. 7. 2024 04:00 63 11
20. 7. 2024 03:00 63 11
20. 7. 2024 02:00 63 11
20. 7. 2024 01:00 65 12
20. 7. 2024 00:00 65 12
19. 7. 2024 23:00 63 11
19. 7. 2024 22:00 64 11
19. 7. 2024 21:00 64 11
19. 7. 2024 20:00 64 11
19. 7. 2024 19:00 65 12
19. 7. 2024 18:00 65 12
19. 7. 2024 17:00 65 12
19. 7. 2024 16:00 67 12

H - water level, Q - discharge

river Lužnice - water gauge Bechyně

Date and time (UTC) H (cm) Q (m³/s)
20. 7. 2024 04:40 126 14.5
20. 7. 2024 04:00 127 15
20. 7. 2024 03:00 127 15
20. 7. 2024 02:00 126 15
20. 7. 2024 01:00 126 15
20. 7. 2024 00:00 129 15
19. 7. 2024 23:00 130 16
19. 7. 2024 22:00 131 16
19. 7. 2024 21:00 132 16
19. 7. 2024 20:00 133 17
19. 7. 2024 19:00 133 17
19. 7. 2024 18:00 131 16
19. 7. 2024 17:00 132 16
19. 7. 2024 16:00 132 17

H - water level, Q - discharge
Source data
Labe Basin Vltava Basin Povodí Moravy ČHMÚ
Po vodě ekologicky, levně a v pohodě
backgroung on backgroung off